Time;durP1;ratioP1;P1;durP2;ratioP2;P2;SDS_P1;SDS_P2;PMS_P1;PMS_P2;Temp;Humidity;BMP_temperature;BMP_pressure;BME280_temperature;BME280_humidity;BME280_pressure;Samples;Min_cycle;Max_cycle;Signal;HPM_P1;HPM_P2
2022/11/01 00:04:59;;;;;;;7.97;7.15;;;;;;;;;;5066689;28;20036;-58
2022/11/01 00:13:53;;;;;;;14.90;7.10;;;;;;;;;;5065507;28;20040;-58
2022/11/01 00:22:38;;;;;;;10.07;7.97;;;;;;;;;;5026218;28;20048;-59
2022/11/01 00:25:32;;;;;;;11.05;7.63;;;;;;;;;;5035360;28;20057;-58
2022/11/01 00:28:13;;;;;;;12.15;8.07;;;;;;;;;;4985557;28;20043;-59
2022/11/01 00:31:14;;;;;;;9.27;7.53;;;;;;;;;;4964546;29;20039;-58
2022/11/01 00:33:53;;;;;;;10.27;7.78;;;;;;;;;;5137153;28;20035;-59
2022/11/01 00:39:18;;;;;;;11.90;7.03;;;;;;;;;;5148726;28;20031;-58
2022/11/01 00:47:41;;;;;;;8.05;7.28;;;;;;;;;;5149118;28;20031;-59
2022/11/01 00:50:08;;;;;;;16.13;8.00;;;;;;;;;;5149398;28;20040;-59
2022/11/01 00:55:50;;;;;;;10.27;7.57;;;;;;;;;;5148624;28;20090;-59
2022/11/01 00:58:25;;;;;;;15.68;7.40;;;;;;;;;;5149066;28;20031;-58
2022/11/01 01:01:23;;;;;;;13.02;8.80;;;;;;;;;;5148115;28;20059;-59
2022/11/01 01:04:02;;;;;;;14.27;6.85;;;;;;;;;;5128968;28;20078;-58
2022/11/01 01:12:36;;;;;;;13.20;7.40;;;;;;;;;;5137611;28;20065;-58
2022/11/01 01:15:11;;;;;;;8.73;6.72;;;;;;;;;;5105352;28;20035;-58
2022/11/01 01:17:44;;;;;;;8.20;6.78;;;;;;;;;;5084566;28;20054;-58
2022/11/01 01:20:31;;;;;;;7.40;6.68;;;;;;;;;;5085859;28;20124;-58
2022/11/01 01:23:15;;;;;;;9.27;7.35;;;;;;;;;;5067288;28;20055;-58
2022/11/01 01:25:59;;;;;;;9.40;6.18;;;;;;;;;;5068431;28;20036;-59
2022/11/01 01:31:42;;;;;;;10.65;7.03;;;;;;;;;;5067853;28;20063;-58
2022/11/01 01:34:35;;;;;;;9.88;7.40;;;;;;;;;;5051226;28;20560;-58
2022/11/01 01:37:26;;;;;;;8.05;6.57;;;;;;;;;;5067314;28;20040;-59
2022/11/01 01:40:21;;;;;;;12.40;6.03;;;;;;;;;;5068893;28;20397;-59
2022/11/01 01:49:11;;;;;;;11.30;6.10;;;;;;;;;;5105555;28;20047;-59
2022/11/01 01:52:01;;;;;;;;;;;;;;;;;;;;;
2022/11/01 01:55:11;;;;;;;;;;;;;;;;;;;;;
2022/11/01 01:57:47;;;;;;;12.95;5.00;;;;;;;;;;5134539;27;20145;-59
2022/11/01 02:00:32;;;;;;;10.25;5.80;;;;;;;;;;5132801;27;20038;-58
2022/11/01 02:03:21;;;;;;;;;;;;;;;;;;;;;
2022/11/01 02:06:04;;;;;;;5.68;5.03;;;;;;;;;;5145073;27;20118;-58
2022/11/01 02:08:31;;;;;;;10.25;7.03;;;;;;;;;;5132182;27;20053;-59
2022/11/01 02:11:40;;;;;;;;;;;;;;;;;;;;;
2022/11/01 02:14:23;;;;;;;6.15;5.35;;;;;;;;;;5146829;27;20047;-58
2022/11/01 02:17:18;;;;;;;7.32;5.53;;;;;;;;;;5150538;27;20047;-58
2022/11/01 02:20:17;;;;;;;8.45;6.05;;;;;;;;;;5060477;27;20539;-58
2022/11/01 02:23:07;;;;;;;9.90;5.78;;;;;;;;;;5063156;27;20027;-58
2022/11/01 02:31:55;;;;;;;9.30;5.65;;;;;;;;;;5149884;27;20056;-59
2022/11/01 02:34:31;;;;;;;6.88;6.18;;;;;;;;;;5131289;27;20031;-59
2022/11/01 02:37:15;;;;;;;7.15;5.80;;;;;;;;;;5151080;27;20039;-59
2022/11/01 02:43:04;;;;;;;10.80;5.97;;;;;;;;;;5146881;27;20035;-59
2022/11/01 02:45:54;;;;;;;12.25;6.07;;;;;;;;;;5150733;27;20019;-60
2022/11/01 02:48:59;;;;;;;7.57;5.43;;;;;;;;;;5150851;27;20034;-59
2022/11/01 02:51:45;;;;;;;9.02;5.75;;;;;;;;;;5149753;27;20032;-60
2022/11/01 02:54:44;;;;;;;10.43;5.60;;;;;;;;;;5150382;27;20034;-59
2022/11/01 02:57:23;;;;;;;11.77;6.35;;;;;;;;;;5150703;27;20026;-60
2022/11/01 03:02:53;;;;;;;8.60;6.00;;;;;;;;;;5087959;28;20044;-59
2022/11/01 03:06:01;;;;;;;9.18;6.25;;;;;;;;;;5087539;28;20029;-59
2022/11/01 03:08:46;;;;;;;10.30;6.55;;;;;;;;;;4991516;28;20031;-59
2022/11/01 03:11:36;;;;;;;8.88;5.65;;;;;;;;;;5085373;28;20064;-59
2022/11/01 03:14:20;;;;;;;9.85;5.70;;;;;;;;;;5087396;28;20055;-59
2022/11/01 03:17:24;;;;;;;;;;;;;;;;;;;;;
2022/11/01 03:20:16;;;;;;;7.63;4.95;;;;;;;;;;5067332;28;20088;-60
2022/11/01 03:22:44;;;;;;;;;;;;;;;;;;5051089;28;20037;-59
2022/11/01 03:25:43;;;;;;;11.45;6.53;;;;;;;;;;5067099;28;19904;-59
2022/11/01 03:28:37;;;;;;;7.15;6.35;;;;;;;;;;5067063;28;20033;-60
2022/11/01 03:31:12;;;;;;;13.57;7.13;;;;;;;;;;5103910;28;20048;-59
2022/11/01 03:34:17;;;;;;;8.00;6.30;;;;;;;;;;5129275;28;20544;-59
2022/11/01 03:37:08;;;;;;;7.20;6.47;;;;;;;;;;5027351;28;20057;-59
2022/11/01 03:39:41;;;;;;;;;;;;;;;;;;5028106;28;20034;-59
2022/11/01 03:42:32;;;;;;;8.45;6.55;;;;;;;;;;5026945;28;20002;-60
2022/11/01 03:45:27;;;;;;;7.53;6.43;;;;;;;;;;5084422;28;20036;-59
2022/11/01 03:48:04;;;;;;;7.55;5.03;;;;;;;;;;5086628;28;20159;-59
2022/11/01 03:50:52;;;;;;;12.82;6.05;;;;;;;;;;5086637;28;20103;-57
2022/11/01 03:56:44;;;;;;;5.07;4.38;;;;;;;;;;5015786;28;20030;-57
2022/11/01 03:59:34;;;;;;;10.73;4.40;;;;;;;;;;5087005;28;20032;-57
2022/11/01 04:08:32;;;;;;;7.18;4.32;;;;;;;;;;5086105;28;20052;-57
2022/11/01 04:11:23;;;;;;;9.95;4.90;;;;;;;;;;5068606;28;20123;-57
2022/11/01 04:20:31;;;;;;;8.98;4.50;;;;;;;;;;5106888;28;20497;-57
2022/11/01 04:22:56;;;;;;;8.00;4.55;;;;;;;;;;5043085;28;20087;-57
2022/11/01 04:28:25;;;;;;;11.82;3.50;;;;;;;;;;5042872;28;20037;-57
2022/11/01 04:31:15;;;;;;;5.95;4.18;;;;;;;;;;5038903;28;20045;-57
2022/11/01 04:34:40;;;;;;;6.82;3.70;;;;;;;;;;4969577;28;20039;-57
2022/11/01 04:42:55;;;;;;;5.28;2.85;;;;;;;;;;5029302;28;20083;-57
2022/11/01 04:45:51;;;;;;;4.35;3.20;;;;;;;;;;5107328;28;20384;-57
2022/11/01 04:48:34;;;;;;;;;;;;;;;;;;;;;
2022/11/01 05:00:43;;;;;;;3.78;2.45;;;;;;;;;;5075280;28;20459;-56
2022/11/01 05:03:24;;;;;;;7.55;3.05;;;;;;;;;;5035583;28;20037;-57
2022/11/01 05:05:56;;;;;;;;;;;;;;;;;;5076214;28;20039;-57
2022/11/01 05:08:43;;;;;;;9.20;3.65;;;;;;;;;;5075999;28;19911;-56
2022/11/01 05:16:58;;;;;;;;;;;;;;;;;;;;;
2022/11/01 05:26:04;;;;;;;2.50;1.73;;;;;;;;;;5007098;28;20232;-59
2022/11/01 05:28:52;;;;;;;5.45;2.42;;;;;;;;;;5120035;27;20496;-59
2022/11/01 05:31:50;;;;;;;3.95;1.70;;;;;;;;;;5139316;27;20046;-59
2022/11/01 05:34:45;;;;;;;3.15;1.55;;;;;;;;;;5075260;27;20031;-59
2022/11/01 05:37:30;;;;;;;3.63;1.80;;;;;;;;;;5138177;27;20461;-59
2022/11/01 05:40:24;;;;;;;4.93;1.73;;;;;;;;;;5119981;27;20027;-56
2022/11/01 05:43:11;;;;;;;3.78;1.65;;;;;;;;;;5119749;27;20057;-57
2022/11/01 05:46:09;;;;;;;5.25;2.10;;;;;;;;;;5137894;27;20049;-57
2022/11/01 05:48:56;;;;;;;3.67;1.73;;;;;;;;;;5106635;27;20035;-57
2022/11/01 05:51:23;;;;;;;4.53;1.88;;;;;;;;;;5122561;27;20478;-57
2022/11/01 06:03:07;;;;;;;;;;;;;;;;;;;;;
2022/11/01 06:05:43;;;;;;;6.38;2.28;;;;;;;;;;5137471;27;20395;-57
2022/11/01 06:11:55;;;;;;;6.22;1.75;;;;;;;;;;5137360;27;20503;-57
2022/11/01 06:15:02;;;;;;;2.42;1.35;;;;;;;;;;5137768;27;20023;-57
2022/11/01 06:21:01;;;;;;;;;;;;;;;;;;;;;
2022/11/01 06:24:13;;;;;;;;;;;;;;;;;;;;;
2022/11/01 06:29:32;;;;;;;4.07;1.27;;;;;;;;;;5109913;28;20050;-57
2022/11/01 06:31:58;;;;;;;2.50;0.98;;;;;;;;;;5098291;28;20473;-57
2022/11/01 06:37:45;;;;;;;2.28;1.05;;;;;;;;;;5110583;28;20089;-57
2022/11/01 06:49:52;;;;;;;1.88;1.02;;;;;;;;;;5113634;28;20080;-57
2022/11/01 06:52:51;;;;;;;2.45;1.05;;;;;;;;;;5094128;28;20118;-57
2022/11/01 06:55:39;;;;;;;1.95;1.27;;;;;;;;;;5096820;28;20028;-57
2022/11/01 06:58:43;;;;;;;1.63;0.93;;;;;;;;;;5116573;28;20351;-57
2022/11/01 07:01:20;;;;;;;2.70;0.85;;;;;;;;;;5053263;28;20041;-57
2022/11/01 07:09:46;;;;;;;2.35;0.80;;;;;;;;;;5053088;28;20059;-57
2022/11/01 07:15:41;;;;;;;3.20;1.20;;;;;;;;;;5107491;28;20480;-57
2022/11/01 07:19:01;;;;;;;3.25;1.33;;;;;;;;;;5115269;28;20217;-57
2022/11/01 07:27:54;;;;;;;;;;;;;;;;;;;;;
2022/11/01 07:30:50;;;;;;;3.00;1.27;;;;;;;;;;5053251;28;20044;-59
2022/11/01 07:33:57;;;;;;;1.63;0.98;;;;;;;;;;5052130;28;20463;-60
2022/11/01 07:36:21;;;;;;;0.95;0.57;;;;;;;;;;5087577;28;20028;-59
2022/11/01 07:42:02;;;;;;;1.17;0.70;;;;;;;;;;5115685;28;20145;-60
2022/11/01 07:44:52;;;;;;;1.48;0.70;;;;;;;;;;5115518;28;20031;-59
2022/11/01 07:47:57;;;;;;;1.77;0.88;;;;;;;;;;5096721;28;20019;-59
2022/11/01 07:50:42;;;;;;;1.10;0.47;;;;;;;;;;5052113;28;20101;-59
2022/11/01 07:56:22;;;;;;;0.82;0.52;;;;;;;;;;5052734;28;20091;-59
2022/11/01 08:02:18;;;;;;;3.28;0.80;;;;;;;;;;5098623;28;20066;-59
2022/11/01 08:05:04;;;;;;;2.45;0.73;;;;;;;;;;5081119;28;20489;-60
2022/11/01 08:08:10;;;;;;;2.35;0.50;;;;;;;;;;5096688;28;20032;-60
2022/11/01 08:10:53;;;;;;;;;;;;;;;;;;;;;
2022/11/01 08:17:03;;;;;;;0.90;0.50;;;;;;;;;;5100725;28;20072;-59
2022/11/01 08:22:48;;;;;;;;;;;;;;;;;;;;;
2022/11/01 08:25:17;;;;;;;1.15;0.47;;;;;;;;;;5051396;28;20376;-59
2022/11/01 08:27:59;;;;;;;1.52;0.88;;;;;;;;;;5051090;28;20521;-59
2022/11/01 08:30:50;;;;;;;2.65;0.63;;;;;;;;;;5018874;28;20041;-57
2022/11/01 08:33:43;;;;;;;2.10;0.82;;;;;;;;;;5056201;28;20025;-57
2022/11/01 08:39:45;;;;;;;;;;;;;;;;;;;;;
2022/11/01 08:54:38;;;;;;;1.25;0.55;;;;;;;;;;5081481;28;20409;-57
2022/11/01 09:00:26;;;;;;;1.55;0.68;;;;;;;;;;5133767;27;20039;-57
2022/11/01 09:02:52;;;;;;;1.52;0.68;;;;;;;;;;5119724;27;20477;-57
2022/11/01 09:05:24;;;;;;;1.10;0.50;;;;;;;;;;5138129;27;20472;-57
2022/11/01 09:08:18;;;;;;;2.97;0.63;;;;;;;;;;5136180;27;20485;-57
2022/11/01 09:14:32;;;;;;;;;;;;;;;;;;;;;
2022/11/01 09:17:36;;;;;;;;;;;;;;;;;;;;;
2022/11/01 09:24:01;;;;;;;;;;;;;;;;;;;;;
2022/11/01 09:26:39;;;;;;;1.30;0.47;;;;;;;;;;5114559;28;20074;-58
2022/11/01 09:29:30;;;;;;;;;;;;;;;;;;;;;
2022/11/01 09:32:55;;;;;;;0.50;0.25;;;;;;;;;;5048317;28;20040;-58
2022/11/01 09:35:53;;;;;;;;;;;;;;;;;;;;;
2022/11/01 09:38:31;;;;;;;2.22;0.57;;;;;;;;;;5117469;28;20019;-60
2022/11/01 09:44:33;;;;;;;1.52;0.70;;;;;;;;;;5073862;28;20490;-58
2022/11/01 09:47:21;;;;;;;0.65;0.28;;;;;;;;;;5069759;28;20033;-59
2022/11/01 09:49:55;;;;;;;1.58;0.30;;;;;;;;;;5074828;28;20051;-58
2022/11/01 09:56:11;;;;;;;;;;;;;;;;;;;;;
2022/11/01 09:59:01;;;;;;;0.32;0.10;;;;;;;;;;5054838;28;20127;-58
2022/11/01 10:01:51;;;;;;;0.80;0.40;;;;;;;;;;5036966;28;20033;-58
2022/11/01 10:04:23;;;;;;;;;;;;;;;;;;5055151;28;20426;-58
2022/11/01 10:07:31;;;;;;;1.35;0.55;;;;;;;;;;5055593;28;20452;-58
2022/11/01 10:13:07;;;;;;;1.33;0.55;;;;;;;;;;5109452;28;20030;-58
2022/11/01 10:15:59;;;;;;;1.40;0.70;;;;;;;;;;5117104;28;20023;-59
2022/11/01 10:18:43;;;;;;;1.35;0.57;;;;;;;;;;5117153;28;20024;-58
2022/11/01 10:21:16;;;;;;;2.33;0.38;;;;;;;;;;5098869;28;20059;-59
2022/11/01 10:26:59;;;;;;;1.33;0.60;;;;;;;;;;5137915;27;20515;-58
2022/11/01 10:29:54;;;;;;;0.80;0.38;;;;;;;;;;5126019;27;20058;-58
2022/11/01 10:33:04;;;;;;;;;;;;;;;;;;;;;
2022/11/01 10:35:54;;;;;;;1.15;0.55;;;;;;;;;;5135658;27;20114;-58
2022/11/01 10:38:53;;;;;;;1.02;0.50;;;;;;;;;;5136781;27;20015;-59
2022/11/01 10:44:58;;;;;;;0.98;0.47;;;;;;;;;;5110441;27;20110;-58
2022/11/01 10:47:42;;;;;;;;;;;;;;;;;;;;;
2022/11/01 10:50:49;;;;;;;1.95;0.30;;;;;;;;;;5136295;27;20376;-59
2022/11/01 10:53:28;;;;;;;1.50;0.73;;;;;;;;;;5033032;28;20057;-59
2022/11/01 10:56:08;;;;;;;1.25;0.68;;;;;;;;;;5125651;27;20035;-59
2022/11/01 10:59:20;;;;;;;1.88;0.60;;;;;;;;;;5102499;27;20038;-59
2022/11/01 11:02:36;;;;;;;1.92;0.75;;;;;;;;;;5117003;27;20393;-58
2022/11/01 11:06:01;;;;;;;3.83;0.57;;;;;;;;;;5033063;28;20091;-58
2022/11/01 11:08:36;;;;;;;2.63;0.70;;;;;;;;;;5027603;28;20034;-59
2022/11/01 11:11:10;;;;;;;1.35;0.70;;;;;;;;;;5103625;27;20438;-59
2022/11/01 11:17:11;;;;;;;1.42;0.70;;;;;;;;;;5135605;27;20108;-58
2022/11/01 11:19:58;;;;;;;1.98;0.85;;;;;;;;;;5136003;27;20027;-58
2022/11/01 11:22:56;;;;;;;2.92;0.95;;;;;;;;;;5112518;27;20120;-58
2022/11/01 11:25:50;;;;;;;;;;;;;;;;;;;;;
2022/11/01 11:35:14;;;;;;;6.55;0.82;;;;;;;;;;5132770;28;20035;-58
2022/11/01 11:44:26;;;;;;;;;;;;;;;;;;;;;
2022/11/01 11:47:16;;;;;;;1.17;0.50;;;;;;;;;;5056861;28;20493;-57
2022/11/01 11:53:21;;;;;;;1.48;0.63;;;;;;;;;;5094819;28;20041;-58
2022/11/01 11:56:08;;;;;;;1.83;0.40;;;;;;;;;;5092019;28;20488;-57
2022/11/01 11:59:01;;;;;;;;;;;;;;;;;;;;;
2022/11/01 12:01:46;;;;;;;1.50;0.50;;;;;;;;;;5116104;28;20107;-57
2022/11/01 12:04:23;;;;;;;3.40;0.70;;;;;;;;;;5130340;28;20077;-57
2022/11/01 12:13:22;;;;;;;1.90;1.00;;;;;;;;;;5123360;28;20038;-58
2022/11/01 12:16:16;;;;;;;1.52;0.73;;;;;;;;;;5132104;28;20023;-58
2022/11/01 12:18:49;;;;;;;3.72;0.88;;;;;;;;;;5132166;28;20448;-58
2022/11/01 12:21:43;;;;;;;1.40;0.43;;;;;;;;;;5119162;28;20035;-56
2022/11/01 12:24:27;;;;;;;1.60;0.57;;;;;;;;;;5129455;27;20065;-58
2022/11/01 12:27:14;;;;;;;1.30;0.50;;;;;;;;;;5120401;28;20055;-58
2022/11/01 12:30:02;;;;;;;0.85;0.43;;;;;;;;;;5093471;28;20549;-59
2022/11/01 12:32:47;;;;;;;2.67;0.88;;;;;;;;;;5112325;28;20453;-58
2022/11/01 12:35:49;;;;;;;0.75;0.40;;;;;;;;;;5092849;28;20557;-58
2022/11/01 12:38:25;;;;;;;1.05;0.50;;;;;;;;;;5091673;28;20044;-57
2022/11/01 12:41:24;;;;;;;2.33;1.23;;;;;;;;;;5097935;28;20071;-58
2022/11/01 12:44:27;;;;;;;1.60;0.73;;;;;;;;;;5095390;28;20035;-58
2022/11/01 12:47:26;;;;;;;;;;;;;;;;;;;;;
2022/11/01 12:53:32;;;;;;;1.92;0.60;;;;;;;;;;4957238;29;20031;-60
2022/11/01 12:56:34;;;;;;;1.63;0.57;;;;;;;;;;4907768;29;20043;-59
2022/11/01 13:02:28;;;;;;;2.70;0.60;;;;;;;;;;5014139;28;20033;-60
2022/11/01 13:09:00;;;;;;;1.65;0.90;;;;;;;;;;5054215;28;20040;-59
2022/11/01 13:11:56;;;;;;;3.42;1.05;;;;;;;;;;5028068;28;20191;-60
2022/11/01 13:14:49;;;;;;;1.95;0.95;;;;;;;;;;5037886;28;20473;-59
2022/11/01 13:17:37;;;;;;;4.30;1.77;;;;;;;;;;5053844;28;20433;-59
2022/11/01 13:23:42;;;;;;;9.45;1.30;;;;;;;;;;4974680;28;20050;-60
2022/11/01 13:26:30;;;;;;;1.70;0.80;;;;;;;;;;4960205;28;20046;-60
2022/11/01 13:39:15;;;;;;;6.22;1.20;;;;;;;;;;4975042;28;20254;-59
2022/11/01 13:42:15;;;;;;;1.48;0.95;;;;;;;;;;4955921;29;20035;-57
2022/11/01 13:44:51;;;;;;;3.33;1.33;;;;;;;;;;4935997;29;20082;-57
2022/11/01 13:50:56;;;;;;;4.10;1.67;;;;;;;;;;5012744;28;20077;-59
2022/11/01 13:53:52;;;;;;;1.95;0.98;;;;;;;;;;5004660;28;20026;-59
2022/11/01 13:56:39;;;;;;;4.70;1.75;;;;;;;;;;5014169;28;20034;-59
2022/11/01 13:59:43;;;;;;;;;;;;;;;;;;;;;
2022/11/01 14:02:34;;;;;;;3.75;1.65;;;;;;;;;;5015456;28;20040;-59
2022/11/01 14:05:20;;;;;;;;;;;;;;;;;;;;;
2022/11/01 14:07:56;;;;;;;;;;;;;;;;;;;;;
2022/11/01 14:13:37;;;;;;;4.75;1.73;;;;;;;;;;4993439;28;20108;-59
2022/11/01 14:16:40;;;;;;;2.88;1.63;;;;;;;;;;5052625;28;20113;-59
2022/11/01 14:25:57;;;;;;;2.35;1.40;;;;;;;;;;4935475;29;20549;-59
2022/11/01 14:31:53;;;;;;;5.57;1.70;;;;;;;;;;5011399;28;20042;-59
2022/11/01 14:34:40;;;;;;;5.55;1.30;;;;;;;;;;5013703;28;20120;-59
2022/11/01 14:37:22;;;;;;;1.80;1.00;;;;;;;;;;5002496;28;20467;-59
2022/11/01 14:43:09;;;;;;;3.47;1.40;;;;;;;;;;5051821;28;20143;-59
2022/11/01 14:52:50;;;;;;;2.85;1.40;;;;;;;;;;4956836;28;20067;-60
2022/11/01 14:58:37;;;;;;;3.95;1.30;;;;;;;;;;4993894;28;20116;-59
2022/11/01 15:01:24;;;;;;;2.60;1.52;;;;;;;;;;4989877;28;20049;-59
2022/11/01 15:04:18;;;;;;;4.00;1.80;;;;;;;;;;4993474;28;20030;-60
2022/11/01 15:07:00;;;;;;;2.63;1.10;;;;;;;;;;4994158;28;20038;-59
2022/11/01 15:09:45;;;;;;;3.70;1.55;;;;;;;;;;4992554;28;20517;-57
2022/11/01 15:18:42;;;;;;;5.93;1.52;;;;;;;;;;5068676;28;20040;-58
2022/11/01 15:21:43;;;;;;;;;;;;;;;;;;;;;
2022/11/01 15:24:46;;;;;;;3.22;1.63;;;;;;;;;;5071331;28;20036;-58
2022/11/01 15:27:51;;;;;;;3.63;1.45;;;;;;;;;;5076027;28;20024;-58
2022/11/01 15:30:33;;;;;;;5.18;1.80;;;;;;;;;;4991941;28;20445;-58
2022/11/01 15:42:48;;;;;;;3.17;1.85;;;;;;;;;;5059455;28;20060;-59
2022/11/01 15:52:03;;;;;;;2.90;1.40;;;;;;;;;;4982251;28;20569;-59
2022/11/01 15:54:47;;;;;;;7.68;1.90;;;;;;;;;;4975399;28;20153;-59
2022/11/01 15:57:52;;;;;;;6.15;1.95;;;;;;;;;;4992828;28;20042;-58
2022/11/01 16:00:54;;;;;;;4.00;1.60;;;;;;;;;;4960843;28;20034;-59
2022/11/01 16:13:22;;;;;;;3.90;1.60;;;;;;;;;;4992684;28;20206;-59
2022/11/01 16:16:09;;;;;;;3.88;1.50;;;;;;;;;;4975110;28;20058;-57
2022/11/01 16:22:02;;;;;;;2.95;1.17;;;;;;;;;;4965683;28;20034;-59
2022/11/01 16:25:16;;;;;;;9.60;2.05;;;;;;;;;;5024155;28;20040;-59
2022/11/01 16:27:53;;;;;;;3.78;1.63;;;;;;;;;;5092809;28;20039;-60
2022/11/01 16:33:48;;;;;;;;;;;;;;;;;;;;;
2022/11/01 16:39:23;;;;;;;6.45;1.52;;;;;;;;;;5097993;28;20057;-59
2022/11/01 16:42:12;;;;;;;3.83;2.00;;;;;;;;;;5080892;28;20056;-59
2022/11/01 16:44:39;;;;;;;3.97;1.80;;;;;;;;;;5097216;28;20350;-59
2022/11/01 16:51:14;;;;;;;5.00;1.73;;;;;;;;;;4944257;28;20122;-59
2022/11/01 16:57:09;;;;;;;4.32;1.38;;;;;;;;;;4987588;28;20041;-59
2022/11/01 16:59:44;;;;;;;2.80;1.52;;;;;;;;;;4996367;28;20042;-59
2022/11/01 17:05:42;;;;;;;3.83;2.05;;;;;;;;;;4995452;28;20034;-59
2022/11/01 17:08:21;;;;;;;7.75;2.40;;;;;;;;;;4995515;28;20384;-59
2022/11/01 17:14:13;;;;;;;7.40;3.65;;;;;;;;;;5092398;28;20035;-59
2022/11/01 17:23:14;;;;;;;3.70;1.90;;;;;;;;;;5096865;28;20094;-59
2022/11/01 17:25:44;;;;;;;5.03;2.75;;;;;;;;;;5080079;28;20481;-59
2022/11/01 17:28:28;;;;;;;5.85;2.75;;;;;;;;;;5081913;28;20052;-59
2022/11/01 17:31:23;;;;;;;3.65;2.47;;;;;;;;;;5077590;28;20036;-59
2022/11/01 17:36:50;;;;;;;5.85;2.58;;;;;;;;;;5096254;28;20093;-59
2022/11/01 17:42:40;;;;;;;;;;;;;;;;;;;;;
2022/11/01 17:45:08;;;;;;;4.78;2.45;;;;;;;;;;5091892;28;20044;-59
2022/11/01 17:47:50;;;;;;;6.75;3.35;;;;;;;;;;5096158;28;20097;-59
2022/11/01 17:50:31;;;;;;;6.55;3.13;;;;;;;;;;5073322;28;20075;-59
2022/11/01 17:56:32;;;;;;;6.32;3.13;;;;;;;;;;5096015;28;20047;-59
2022/11/01 17:59:18;;;;;;;5.00;3.80;;;;;;;;;;5096919;28;20024;-59
2022/11/01 18:01:55;;;;;;;5.05;3.08;;;;;;;;;;5096015;28;20149;-58
2022/11/01 18:05:02;;;;;;;4.50;2.97;;;;;;;;;;5095719;28;20073;-59
2022/11/01 18:07:47;;;;;;;4.68;2.97;;;;;;;;;;5094816;28;20082;-58
2022/11/01 18:10:29;;;;;;;3.70;2.67;;;;;;;;;;5095992;28;20093;-58
2022/11/01 18:13:10;;;;;;;9.98;2.97;;;;;;;;;;5078270;28;20036;-58
2022/11/01 18:15:55;;;;;;;4.63;2.63;;;;;;;;;;5095450;28;20097;-58
2022/11/01 18:18:43;;;;;;;7.45;3.13;;;;;;;;;;5043578;28;20028;-58
2022/11/01 18:21:38;;;;;;;3.30;2.28;;;;;;;;;;5094446;28;20032;-60
2022/11/01 18:24:29;;;;;;;8.35;2.33;;;;;;;;;;5095380;28;20050;-59
2022/11/01 18:27:21;;;;;;;3.83;2.25;;;;;;;;;;5045934;28;20185;-59
2022/11/01 18:33:17;;;;;;;3.45;1.88;;;;;;;;;;5091670;28;20032;-59
2022/11/01 18:36:11;;;;;;;7.35;2.90;;;;;;;;;;5094611;28;20043;-58
2022/11/01 18:38:59;;;;;;;5.70;2.70;;;;;;;;;;5094959;28;20028;-59
2022/11/01 18:42:09;;;;;;;4.63;2.60;;;;;;;;;;5095293;28;20036;-58
2022/11/01 18:44:48;;;;;;;6.15;2.20;;;;;;;;;;4992180;28;20046;-60
2022/11/01 18:47:28;;;;;;;3.20;2.20;;;;;;;;;;4993434;28;20117;-59
2022/11/01 18:50:16;;;;;;;2.53;1.50;;;;;;;;;;4971521;28;20504;-59
2022/11/01 18:53:24;;;;;;;4.13;1.63;;;;;;;;;;4977979;28;20612;-60
2022/11/01 18:56:39;;;;;;;3.30;1.75;;;;;;;;;;5046834;28;20032;-59
2022/11/01 18:59:34;;;;;;;2.65;1.33;;;;;;;;;;5094869;28;20035;-59
2022/11/01 19:02:29;;;;;;;2.38;1.73;;;;;;;;;;5095397;28;20358;-58
2022/11/01 19:05:24;;;;;;;6.32;2.00;;;;;;;;;;5074200;28;20485;-59
2022/11/01 19:08:06;;;;;;;2.25;1.10;;;;;;;;;;5076676;28;20032;-58
2022/11/01 19:10:46;;;;;;;2.17;0.98;;;;;;;;;;5095346;28;20042;-58
2022/11/01 19:13:58;;;;;;;3.45;1.27;;;;;;;;;;5060705;28;20032;-58
2022/11/01 19:17:01;;;;;;;5.03;1.40;;;;;;;;;;5052593;28;20432;-56
2022/11/01 19:19:42;;;;;;;2.10;0.85;;;;;;;;;;5094571;28;20449;-59
2022/11/01 19:25:43;;;;;;;2.95;1.60;;;;;;;;;;5095176;28;20469;-58
2022/11/01 19:28:39;;;;;;;5.32;1.88;;;;;;;;;;5094631;28;20381;-58
2022/11/01 19:31:43;;;;;;;2.75;1.13;;;;;;;;;;5094454;28;20450;-59
2022/11/01 19:34:31;;;;;;;5.05;1.60;;;;;;;;;;5091918;28;20039;-59
2022/11/01 19:37:21;;;;;;;2.72;1.00;;;;;;;;;;5095046;28;20021;-59
2022/11/01 19:40:31;;;;;;;1.67;1.10;;;;;;;;;;5076441;28;20392;-59
2022/11/01 19:43:07;;;;;;;1.90;0.95;;;;;;;;;;4992739;28;20038;-57
2022/11/01 19:51:57;;;;;;;6.90;1.00;;;;;;;;;;4996539;28;20045;-60
2022/11/01 19:54:34;;;;;;;3.30;0.90;;;;;;;;;;5053127;28;20035;-60
2022/11/01 19:57:25;;;;;;;5.28;1.63;;;;;;;;;;5098140;28;20048;-59
2022/11/01 20:03:25;;;;;;;6.03;1.33;;;;;;;;;;5036046;28;19905;-59
2022/11/01 20:06:04;;;;;;;2.80;0.93;;;;;;;;;;4903594;29;20518;-59
2022/11/01 20:08:53;;;;;;;3.85;1.25;;;;;;;;;;4961930;28;20078;-59
2022/11/01 20:11:44;;;;;;;4.18;1.13;;;;;;;;;;4977010;28;20457;-59
2022/11/01 20:14:28;;;;;;;2.22;1.30;;;;;;;;;;4976303;28;20030;-59
2022/11/01 20:17:31;;;;;;;2.30;1.00;;;;;;;;;;5060755;28;20043;-59
2022/11/01 20:20:05;;;;;;;2.45;0.88;;;;;;;;;;4996115;28;20046;-59
2022/11/01 20:23:02;;;;;;;1.98;1.10;;;;;;;;;;5013790;28;20032;-59
2022/11/01 20:25:29;;;;;;;7.68;1.10;;;;;;;;;;5079291;28;20085;-59
2022/11/01 20:28:07;;;;;;;3.22;1.35;;;;;;;;;;5078679;28;20507;-58
2022/11/01 20:30:51;;;;;;;1.92;0.77;;;;;;;;;;5097498;28;20082;-60
2022/11/01 20:33:45;;;;;;;3.90;1.58;;;;;;;;;;5079633;28;20470;-59
2022/11/01 20:39:46;;;;;;;4.75;0.95;;;;;;;;;;5035083;28;20041;-59
2022/11/01 20:42:33;;;;;;;2.20;0.88;;;;;;;;;;5077959;28;20398;-59
2022/11/01 20:45:11;;;;;;;3.83;1.00;;;;;;;;;;5092142;28;20061;-59
2022/11/01 20:47:50;;;;;;;3.05;1.08;;;;;;;;;;5097715;28;20032;-59
2022/11/01 20:53:34;;;;;;;3.25;1.30;;;;;;;;;;5081580;28;20512;-59
2022/11/01 20:56:19;;;;;;;1.40;0.60;;;;;;;;;;5078836;28;20091;-59
2022/11/01 21:02:04;;;;;;;2.55;1.10;;;;;;;;;;5073361;28;20031;-59
2022/11/01 21:07:34;;;;;;;2.97;1.00;;;;;;;;;;5088470;28;20075;-59
2022/11/01 21:10:24;;;;;;;3.75;1.50;;;;;;;;;;5097010;28;20154;-60
2022/11/01 21:14:04;;;;;;;3.83;1.20;;;;;;;;;;5097475;28;20462;-59
2022/11/01 21:16:10;;;;;;;2.38;1.10;;;;;;;;;;5080023;28;20064;-59
2022/11/01 21:19:28;;;;;;;;;;;;;;;;;;;;;
2022/11/01 21:22:04;;;;;;;2.75;1.50;;;;;;;;;;4995829;28;20138;-59
2022/11/01 21:24:58;;;;;;;2.70;0.82;;;;;;;;;;5096907;28;20020;-59
2022/11/01 21:27:41;;;;;;;3.35;0.90;;;;;;;;;;5096673;28;20036;-59
2022/11/01 21:30:49;;;;;;;4.55;1.00;;;;;;;;;;5078224;28;20046;-59
2022/11/01 21:33:50;;;;;;;;;;;;;;;;;;;;;
2022/11/01 21:36:51;;;;;;;2.33;0.82;;;;;;;;;;5044872;28;20091;-59
2022/11/01 21:40:03;;;;;;;1.70;1.00;;;;;;;;;;5096789;28;20082;-57
2022/11/01 21:42:58;;;;;;;2.13;0.90;;;;;;;;;;4995379;28;20042;-59
2022/11/01 21:45:37;;;;;;;2.03;0.65;;;;;;;;;;4987266;28;20030;-58
2022/11/01 21:48:23;;;;;;;3.80;0.80;;;;;;;;;;5077031;28;20036;-59
2022/11/01 21:51:11;;;;;;;4.90;1.70;;;;;;;;;;5046586;28;20028;-59
2022/11/01 21:57:18;;;;;;;5.50;1.60;;;;;;;;;;5068443;28;20028;-59
2022/11/01 22:00:33;;;;;;;;;;;;;;;;;;;;;
2022/11/01 22:03:14;;;;;;;3.88;0.88;;;;;;;;;;5027284;28;20101;-59
2022/11/01 22:06:28;;;;;;;4.10;1.35;;;;;;;;;;5028672;28;20030;-60
2022/11/01 22:16:07;;;;;;;1.52;0.95;;;;;;;;;;5030060;28;20041;-59
2022/11/01 22:18:48;;;;;;;4.07;1.23;;;;;;;;;;4972906;28;20035;-59
2022/11/01 22:21:31;;;;;;;4.00;2.20;;;;;;;;;;4973910;28;20457;-59
2022/11/01 22:24:17;;;;;;;4.43;1.17;;;;;;;;;;5019172;28;20483;-59
2022/11/01 22:32:59;;;;;;;9.25;1.55;;;;;;;;;;5047761;28;20057;-59
2022/11/01 22:38:40;;;;;;;5.20;1.50;;;;;;;;;;5047191;28;20094;-59
2022/11/01 22:44:40;;;;;;;2.00;0.93;;;;;;;;;;5028097;28;20058;-58
2022/11/01 22:47:44;;;;;;;2.08;0.82;;;;;;;;;;5047336;28;20048;-60
2022/11/01 22:50:42;;;;;;;1.48;0.95;;;;;;;;;;5109983;28;20039;-59
2022/11/01 22:53:27;;;;;;;2.95;1.17;;;;;;;;;;5091509;28;20486;-59
2022/11/01 22:55:58;;;;;;;3.70;1.17;;;;;;;;;;5109126;28;20016;-59
2022/11/01 22:58:40;;;;;;;4.57;1.23;;;;;;;;;;5109813;28;20053;-59
2022/11/01 23:04:30;;;;;;;3.60;1.00;;;;;;;;;;5109616;28;20043;-59
2022/11/01 23:07:28;;;;;;;3.38;1.50;;;;;;;;;;5091355;28;20036;-59
2022/11/01 23:10:04;;;;;;;3.45;1.30;;;;;;;;;;5085250;28;20039;-59
2022/11/01 23:15:47;;;;;;;3.63;1.27;;;;;;;;;;5109279;28;20107;-59
2022/11/01 23:18:43;;;;;;;3.47;1.88;;;;;;;;;;5091712;28;20031;-59
2022/11/01 23:21:41;;;;;;;;;;;;;;;;;;;;;
2022/11/01 23:28:10;;;;;;;2.05;1.02;;;;;;;;;;5007312;28;20053;-59
2022/11/01 23:31:08;;;;;;;1.35;0.63;;;;;;;;;;5007112;28;20057;-59
2022/11/01 23:33:49;;;;;;;4.22;1.73;;;;;;;;;;4981371;28;20115;-59
2022/11/01 23:36:21;;;;;;;4.00;1.50;;;;;;;;;;4988062;28;20027;-59
2022/11/01 23:39:16;;;;;;;2.28;0.98;;;;;;;;;;4988004;28;20045;-59
2022/11/01 23:48:50;;;;;;;3.38;0.82;;;;;;;;;;4968051;29;20074;-59
2022/11/01 23:51:35;;;;;;;3.88;1.35;;;;;;;;;;4946811;29;20031;-59
2022/11/01 23:54:28;;;;;;;1.90;0.82;;;;;;;;;;5086733;28;20027;-59
